createdAt,value
2019-03-02T00:00:12.437Z,97852.90
2019-03-02T00:02:44.477Z,97853.69
2019-03-02T00:05:16.633Z,97856.42
2019-03-02T00:07:49.331Z,97859.52
2019-03-02T00:10:21.439Z,97857.81
2019-03-02T00:12:53.637Z,97862.59
2019-03-02T00:15:26.926Z,97864.38
2019-03-02T00:18:06.788Z,97866.03
2019-03-02T00:20:38.920Z,97865.39
2019-03-02T00:23:11.026Z,97867.53
2019-03-02T00:25:43.046Z,97866.23
2019-03-02T00:28:15.080Z,97869.81
2019-03-02T00:30:47.274Z,97866.77
2019-03-02T00:33:19.786Z,97869.28
2019-03-02T00:35:52.859Z,97869.80
2019-03-02T00:38:24.920Z,97866.62
2019-03-02T00:40:56.937Z,97866.18
2019-03-02T00:43:29.050Z,97867.94
2019-03-02T00:46:01.144Z,97866.28
2019-03-02T00:48:33.172Z,97868.91
2019-03-02T00:51:07.867Z,97872.36
2019-03-02T00:53:38.897Z,97869.96
2019-03-02T00:56:10.918Z,97875.20
2019-03-02T00:58:43.009Z,97872.95
2019-03-02T01:01:15.123Z,97874.60
2019-03-02T01:03:47.715Z,97876.27
2019-03-02T01:06:21.154Z,97871.07
2019-03-02T01:08:53.282Z,97869.31
2019-03-02T01:11:25.313Z,97872.09
2019-03-02T01:13:57.668Z,97866.92
2019-03-02T01:16:29.718Z,97869.00
2019-03-02T01:19:01.829Z,97868.81
2019-03-02T01:21:33.949Z,97860.06
2019-03-02T01:24:06.073Z,97862.62
2019-03-02T01:26:38.169Z,97859.37
2019-03-02T01:29:10.188Z,97859.86
2019-03-02T01:31:42.384Z,97857.72
2019-03-02T01:34:14.403Z,97858.68
2019-03-02T01:36:46.511Z,97855.55
2019-03-02T01:39:18.595Z,97851.33
2019-03-02T01:41:51.062Z,97855.48
2019-03-02T01:44:24.330Z,97849.88
2019-03-02T01:46:56.564Z,97853.73
2019-03-02T01:49:28.657Z,97850.84
2019-03-02T01:52:00.683Z,97851.27
2019-03-02T01:54:32.720Z,97845.77
2019-03-02T01:57:04.836Z,97839.52
2019-03-02T01:59:38.673Z,97835.34
2019-03-02T02:02:10.670Z,97839.64
2019-03-02T02:04:42.684Z,97840.53
2019-03-02T02:07:18.153Z,97843.64
2019-03-02T02:09:48.415Z,97842.63
2019-03-02T02:12:20.644Z,97836.42
2019-03-02T02:14:54.433Z,97841.44
2019-03-02T02:17:26.501Z,97834.82
2019-03-02T02:19:58.683Z,97832.04
2019-03-02T02:22:30.746Z,97831.61
2019-03-02T02:25:02.781Z,97833.27
2019-03-02T02:27:34.847Z,97829.68
2019-03-02T02:30:12.332Z,97831.39
2019-03-02T02:32:44.439Z,97830.59
2019-03-02T02:35:16.765Z,97827.70
2019-03-02T02:37:48.867Z,97830.27
2019-03-02T02:40:21.094Z,97832.11
2019-03-02T02:42:53.329Z,97825.43
2019-03-02T02:45:25.591Z,97826.34
2019-03-02T02:47:57.694Z,97826.86
2019-03-02T02:50:31.440Z,97825.05
2019-03-02T02:53:06.950Z,97825.78
2019-03-02T02:55:40.967Z,97824.23
2019-03-02T02:58:12.568Z,97830.41
2019-03-02T03:00:44.849Z,97830.47
2019-03-02T03:03:20.938Z,97830.08
2019-03-02T03:05:54.099Z,97830.40
2019-03-02T03:08:44.055Z,97833.55
2019-03-02T03:11:16.439Z,97841.05
2019-03-02T03:13:48.532Z,97832.45
2019-03-02T03:16:20.627Z,97834.23
2019-03-02T03:18:53.729Z,97837.59
2019-03-02T03:21:27.791Z,97838.36
2019-03-02T03:24:03.843Z,97836.90
2019-03-02T03:26:35.266Z,97841.91
2019-03-02T03:29:09.569Z,97842.05
2019-03-02T03:31:40.934Z,97849.22
2019-03-02T03:34:13.019Z,97845.70
2019-03-02T03:36:45.110Z,97841.97
2019-03-02T03:39:17.136Z,97841.30
2019-03-02T03:41:49.217Z,97851.60
2019-03-02T03:44:25.898Z,97855.18
2019-03-02T03:46:56.099Z,97848.46
2019-03-02T03:49:34.349Z,97845.23
2019-03-02T03:52:09.040Z,97850.18
2019-03-02T03:54:40.993Z,97858.07
2019-03-02T03:57:11.755Z,97859.64
2019-03-02T03:59:43.778Z,97865.83
2019-03-02T04:02:15.804Z,97862.23
2019-03-02T04:04:47.910Z,97862.95
2019-03-02T04:07:20.007Z,97865.31
2019-03-02T04:09:52.118Z,97870.61
2019-03-02T04:12:25.746Z,97865.50
2019-03-02T04:15:01.409Z,97869.50
2019-03-02T04:17:34.078Z,97869.59
2019-03-02T04:20:08.158Z,97868.11
2019-03-02T04:22:44.622Z,97866.45
2019-03-02T04:25:17.995Z,97866.44
2019-03-02T04:27:53.209Z,97870.71
2019-03-02T04:30:21.523Z,97871.52
2019-03-02T04:32:53.608Z,97871.21
2019-03-02T04:35:25.638Z,97871.41
2019-03-02T04:38:00.607Z,97872.67
2019-03-02T04:40:31.462Z,97874.69
2019-03-02T04:43:03.577Z,97872.23
2019-03-02T04:45:36.495Z,97880.84
2019-03-02T04:48:09.335Z,97884.41
2019-03-02T04:50:41.722Z,97880.34
2019-03-02T04:53:13.739Z,97883.91
2019-03-02T04:55:48.551Z,97882.27
2019-03-02T04:58:19.553Z,97882.62
2019-03-02T05:00:51.643Z,97884.60
2019-03-02T05:03:23.745Z,97885.19
2019-03-02T05:05:55.839Z,97876.88
2019-03-02T05:08:27.946Z,97883.63
2019-03-02T05:11:00.741Z,97882.17
2019-03-02T05:13:33.781Z,97882.25
2019-03-02T05:16:05.998Z,97880.19
2019-03-02T05:18:38.110Z,97882.17
2019-03-02T05:21:10.424Z,97884.23
2019-03-02T05:23:42.564Z,97888.28
2019-03-02T05:26:14.667Z,97888.95
2019-03-02T05:28:46.786Z,97886.00
2019-03-02T05:31:18.882Z,97878.52
2019-03-02T05:33:50.918Z,97884.28
2019-03-02T05:36:26.676Z,97878.72
2019-03-02T05:38:56.748Z,97873.33
2019-03-02T05:41:28.844Z,97878.44
2019-03-02T05:44:00.871Z,97882.00
2019-03-02T05:46:32.887Z,97882.16
2019-03-02T05:49:04.996Z,97879.86
2019-03-02T05:51:39.001Z,97881.17
2019-03-02T05:54:10.799Z,97881.30
2019-03-02T05:56:42.890Z,97882.45
2019-03-02T05:59:14.995Z,97878.83
2019-03-02T06:01:47.086Z,97879.27
2019-03-02T06:04:22.103Z,97882.39
2019-03-02T06:06:54.077Z,97879.02
2019-03-02T06:09:26.318Z,97887.75
2019-03-02T06:11:58.347Z,97888.39
2019-03-02T06:14:31.775Z,97886.30
2019-03-02T06:17:03.946Z,97885.48
2019-03-02T06:19:35.988Z,97887.38
2019-03-02T06:22:07.998Z,97889.07
2019-03-02T06:24:41.068Z,97886.56
2019-03-02T06:27:13.422Z,97887.17
2019-03-02T06:29:45.440Z,97883.61
2019-03-02T06:32:17.530Z,97882.10
2019-03-02T06:34:51.903Z,97883.59
2019-03-02T06:37:23.463Z,97884.35
2019-03-02T06:39:56.324Z,97884.08
2019-03-02T06:42:28.435Z,97884.55
2019-03-02T06:45:00.532Z,97884.04
2019-03-02T06:47:33.379Z,97886.05
2019-03-02T06:50:06.150Z,97895.67
2019-03-02T06:52:38.502Z,97890.41
2019-03-02T06:55:11.695Z,97892.53
2019-03-02T06:57:46.162Z,97897.33
2019-03-02T07:00:19.667Z,97901.20
2019-03-02T07:02:51.874Z,97900.30
2019-03-02T07:05:23.913Z,97896.19
2019-03-02T07:07:57.318Z,97900.42
2019-03-02T07:10:29.721Z,97894.68
2019-03-02T07:13:03.226Z,97899.61
2019-03-02T07:15:35.323Z,97901.20
2019-03-02T07:18:24.676Z,97902.18
2019-03-02T07:20:59.503Z,97904.89
2019-03-02T07:23:30.466Z,97904.89
2019-03-02T07:26:03.342Z,97912.42
2019-03-02T07:28:38.831Z,97916.89
2019-03-02T07:31:09.218Z,97918.50
2019-03-02T07:33:41.265Z,97920.73
2019-03-02T07:36:13.288Z,97917.12
2019-03-02T07:38:45.342Z,97902.88
2019-03-02T07:41:18.789Z,97911.02
2019-03-02T07:43:51.039Z,97910.11
2019-03-02T07:46:23.134Z,97916.72
2019-03-02T07:48:55.129Z,97915.95
2019-03-02T07:51:27.235Z,97910.74
2019-03-02T07:54:02.160Z,97915.79
2019-03-02T07:56:33.424Z,97917.78
2019-03-02T07:59:12.787Z,97917.75
2019-03-02T08:01:44.879Z,97909.78
2019-03-02T08:04:16.850Z,97912.97
2019-03-02T08:06:48.970Z,97919.41
2019-03-02T08:09:22.003Z,97917.58
2019-03-02T08:11:54.656Z,97922.82
2019-03-02T08:14:26.639Z,97920.10
2019-03-02T08:16:58.651Z,97916.32
2019-03-02T08:19:31.627Z,97916.20
2019-03-02T08:22:04.409Z,97916.72
2019-03-02T08:24:36.513Z,97912.91
2019-03-02T08:27:10.334Z,97915.47
2019-03-02T08:29:42.421Z,97914.89
2019-03-02T08:32:17.632Z,97917.72
2019-03-02T08:34:48.208Z,97917.77
2019-03-02T08:37:20.407Z,97913.78
2019-03-02T08:39:54.198Z,97916.80
2019-03-02T08:42:26.220Z,97920.99
2019-03-02T08:44:58.199Z,97915.52
2019-03-02T08:47:30.221Z,97914.45
2019-03-02T08:50:02.279Z,97917.50
2019-03-02T08:52:34.372Z,97919.50
2019-03-02T08:55:07.263Z,97911.89
2019-03-02T08:57:39.270Z,97915.19
2019-03-02T09:00:16.541Z,97913.59
2019-03-02T09:02:48.736Z,97913.17
2019-03-02T09:05:23.184Z,97915.89
2019-03-02T09:07:54.621Z,97911.88
2019-03-02T09:10:26.977Z,97911.75
2019-03-02T09:12:59.790Z,97914.36
2019-03-02T09:15:32.129Z,97909.31
2019-03-02T09:18:04.239Z,97909.76
2019-03-02T09:20:37.004Z,97908.87
2019-03-02T09:23:09.291Z,97912.13
2019-03-02T09:25:41.297Z,97909.64
2019-03-02T09:28:13.323Z,97910.27
2019-03-02T09:30:45.421Z,97904.39
2019-03-02T09:33:17.517Z,97905.63
2019-03-02T09:35:54.667Z,97903.19
2019-03-02T09:38:23.253Z,97902.66
2019-03-02T09:40:55.279Z,97905.23
2019-03-02T09:43:27.299Z,97906.92
2019-03-02T09:45:59.420Z,97908.90
2019-03-02T09:48:31.516Z,97903.89
2019-03-02T09:51:03.709Z,97898.98
2019-03-02T09:53:35.814Z,97908.17
2019-03-02T09:56:07.829Z,97905.43
2019-03-02T09:58:42.170Z,97899.39
2019-03-02T10:01:14.272Z,97897.42
2019-03-02T10:03:46.312Z,97896.42
2019-03-02T10:06:21.803Z,97895.22
2019-03-02T10:08:52.133Z,97892.89
2019-03-02T10:11:24.241Z,97893.38
2019-03-02T10:13:56.275Z,97892.63
2019-03-02T10:16:28.396Z,97891.17
2019-03-02T10:19:00.483Z,97883.70
2019-03-02T10:21:32.715Z,97890.69
2019-03-02T10:24:04.939Z,97892.28
2019-03-02T10:26:39.829Z,97888.36
2019-03-02T10:29:12.380Z,97889.50
2019-03-02T10:31:44.853Z,97890.58
2019-03-02T10:34:17.314Z,97887.83
2019-03-02T10:36:49.370Z,97889.91
2019-03-02T10:39:21.489Z,97878.94
2019-03-02T10:41:57.057Z,97881.73
2019-03-02T10:44:28.930Z,97884.89
2019-03-02T10:47:01.036Z,97884.58
2019-03-02T10:49:33.049Z,97885.75
2019-03-02T10:52:05.125Z,97890.03
2019-03-02T10:54:37.148Z,97886.02
2019-03-02T10:57:09.153Z,97885.33
2019-03-02T10:59:41.180Z,97881.59
2019-03-02T11:02:13.304Z,97883.05
2019-03-02T11:05:12.736Z,97880.59
2019-03-02T11:08:06.601Z,97883.86
2019-03-02T11:10:52.214Z,97883.09
2019-03-02T11:13:30.428Z,97877.91
2019-03-02T11:16:33.237Z,97879.50
2019-03-02T11:19:36.354Z,97878.12
2019-03-02T11:22:46.244Z,97883.78
2019-03-02T11:25:37.148Z,97877.87
2019-03-02T11:28:23.860Z,97886.23
2019-03-02T11:31:16.720Z,97876.97
2019-03-02T11:34:06.069Z,97877.94
2019-03-02T11:36:56.886Z,97869.78
2019-03-02T11:39:49.971Z,97871.38
2019-03-02T11:42:38.904Z,97870.97
2019-03-02T11:45:29.971Z,97868.72
2019-03-02T11:48:38.648Z,97863.16
2019-03-02T11:51:24.003Z,97858.17
2019-03-02T11:54:25.075Z,97858.44
2019-03-02T11:57:17.855Z,97858.82
2019-03-02T12:00:13.984Z,97851.83
2019-03-02T12:03:04.826Z,97845.36
2019-03-02T12:05:49.196Z,97849.09
2019-03-02T12:08:36.505Z,97845.84
2019-03-02T12:11:36.217Z,97849.31
2019-03-02T12:14:30.126Z,97843.07
2019-03-02T12:17:26.692Z,97849.11
2019-03-02T12:20:16.068Z,97842.80
2019-03-02T12:23:12.777Z,97844.67
2019-03-02T12:26:12.010Z,97844.83
2019-03-02T12:29:14.888Z,97840.94
2019-03-02T12:32:17.951Z,97832.77
2019-03-02T12:34:58.777Z,97829.19
2019-03-02T12:37:52.398Z,97830.31
2019-03-02T12:40:43.257Z,97832.23
2019-03-02T12:43:34.230Z,97827.39
2019-03-02T12:46:16.819Z,97820.66
2019-03-02T12:49:19.533Z,97818.47
2019-03-02T12:52:22.597Z,97818.73
2019-03-02T12:55:16.425Z,97815.38
2019-03-02T12:57:57.981Z,97810.03
2019-03-02T13:00:51.530Z,97808.04
2019-03-02T13:03:45.070Z,97808.31
2019-03-02T13:06:41.590Z,97808.80
2019-03-02T13:09:31.907Z,97807.84
2019-03-02T13:12:21.442Z,97800.74
2019-03-02T13:15:18.289Z,97798.65
2019-03-02T13:18:24.272Z,97804.27
2019-03-02T13:21:30.007Z,97799.34
2019-03-02T13:24:23.584Z,97797.58
2019-03-02T13:27:10.395Z,97800.20
2019-03-02T13:30:05.195Z,97795.83
2019-03-02T13:32:59.661Z,97791.66
2019-03-02T13:35:39.889Z,97795.81
2019-03-02T13:38:21.127Z,97798.11
2019-03-02T13:41:05.049Z,97795.44
2019-03-02T13:43:44.255Z,97786.89
2019-03-02T13:46:35.914Z,97786.08
2019-03-02T13:49:33.826Z,97790.67
2019-03-02T13:52:17.663Z,97789.70
2019-03-02T13:55:13.482Z,97789.02
2019-03-02T13:57:57.935Z,97786.33
2019-03-02T14:00:40.647Z,97791.44
2019-03-02T14:03:26.848Z,97786.48
2019-03-02T14:06:29.828Z,97785.08
2019-03-02T14:09:29.615Z,97781.45
2019-03-02T14:12:19.915Z,97782.15
2019-03-02T14:15:09.440Z,97781.93
2019-03-02T14:18:12.415Z,97777.63
2019-03-02T14:21:15.872Z,97773.34
2019-03-02T14:24:07.780Z,97775.47
2019-03-02T14:27:06.311Z,97776.55
2019-03-02T14:29:55.730Z,97774.15
2019-03-02T14:32:41.719Z,97770.21
2019-03-02T14:35:32.594Z,97775.81
2019-03-02T14:38:23.964Z,97775.91
2019-03-02T14:41:04.809Z,97775.59
2019-03-02T14:44:03.043Z,97773.38
2019-03-02T14:47:06.050Z,97775.72
2019-03-02T14:50:08.654Z,97764.05
2019-03-02T14:52:58.021Z,97765.80
2019-03-02T14:55:40.402Z,97767.58
2019-03-02T14:58:37.734Z,97763.20
2019-03-02T15:01:29.578Z,97768.48
2019-03-02T15:04:11.681Z,97773.84
2019-03-02T15:07:02.501Z,97770.10
2019-03-02T15:09:59.232Z,97770.42
2019-03-02T15:12:59.009Z,97772.47
2019-03-02T15:16:00.065Z,97769.95
2019-03-02T15:18:39.664Z,97769.47
2019-03-02T15:21:28.856Z,97772.56
2019-03-02T15:24:15.032Z,97774.59
2019-03-02T15:27:20.250Z,97770.73
2019-03-02T15:30:05.785Z,97771.59
2019-03-02T15:32:57.676Z,97777.81
2019-03-02T15:35:47.710Z,97773.54
2019-03-02T15:38:40.055Z,97767.23
2019-03-02T15:41:33.137Z,97765.34
2019-03-02T15:44:27.231Z,97769.41
2019-03-02T15:47:18.088Z,97773.28
2019-03-02T15:50:13.435Z,97768.16
2019-03-02T15:52:50.959Z,97768.37
2019-03-02T15:55:41.186Z,97762.53
2019-03-02T15:58:50.997Z,97774.98
2019-03-02T16:01:54.056Z,97778.49
2019-03-02T16:04:53.589Z,97779.57
2019-03-02T16:07:44.365Z,97781.19
2019-03-02T16:10:33.875Z,97780.89
2019-03-02T16:13:24.425Z,97782.53
2019-03-02T16:16:20.939Z,97778.85
2019-03-02T16:19:08.563Z,97774.96
2019-03-02T16:22:01.220Z,97782.72
2019-03-02T16:24:52.063Z,97782.20
2019-03-02T16:27:48.658Z,97774.27
2019-03-02T16:30:36.535Z,97779.89
2019-03-02T16:33:35.578Z,97777.44
2019-03-02T16:36:23.675Z,97779.56
2019-03-02T16:39:17.379Z,97776.74
2019-03-02T16:42:07.054Z,97782.94
2019-03-02T16:44:54.533Z,97778.61
2019-03-02T16:47:38.391Z,97774.78
2019-03-02T16:50:18.285Z,97775.95
2019-03-02T16:53:16.134Z,97775.79
2019-03-02T16:56:07.903Z,97777.02
2019-03-02T16:58:58.860Z,97775.20
2019-03-02T17:01:48.648Z,97776.86
2019-03-02T17:04:39.898Z,97786.11
2019-03-02T17:07:32.044Z,97784.77
2019-03-02T17:10:25.869Z,97791.61
2019-03-02T17:13:16.826Z,97785.63
2019-03-02T17:15:58.767Z,97784.08
2019-03-02T17:18:39.144Z,97780.81
2019-03-02T17:21:44.873Z,97788.02
2019-03-02T17:24:44.662Z,97781.08
2019-03-02T17:27:38.625Z,97788.34
2019-03-02T17:30:34.132Z,97786.42
2019-03-02T17:33:16.502Z,97788.34
2019-03-02T17:36:07.545Z,97790.31
2019-03-02T17:39:07.375Z,97783.23
2019-03-02T17:41:56.395Z,97783.48
2019-03-02T17:44:50.235Z,97779.64
2019-03-02T17:47:41.087Z,97786.52
2019-03-02T17:50:32.153Z,97780.98
2019-03-02T17:53:35.176Z,97789.25
2019-03-02T17:56:21.950Z,97785.57
2019-03-02T17:59:18.907Z,97786.11
2019-03-02T18:02:09.872Z,97786.95
2019-03-02T18:05:00.729Z,97786.52
2019-03-02T18:07:50.105Z,97785.78
2019-03-02T18:10:43.983Z,97791.23
2019-03-02T18:13:35.125Z,97793.80
2019-03-02T18:16:17.173Z,97789.84
2019-03-02T18:18:49.196Z,97791.97
2019-03-02T18:21:21.212Z,97795.44
2019-03-02T18:23:55.801Z,97796.19
2019-03-02T18:26:27.022Z,97797.36
2019-03-02T18:28:59.125Z,97796.23
2019-03-02T18:31:31.194Z,97795.19
2019-03-02T18:34:07.273Z,97795.22
2019-03-02T18:36:41.793Z,97791.59
2019-03-02T18:39:13.184Z,97796.09
2019-03-02T18:41:45.218Z,97795.19
2019-03-02T18:44:17.778Z,97796.41
2019-03-02T18:46:53.198Z,97791.48
2019-03-02T18:49:47.553Z,97788.69
2019-03-02T18:52:31.663Z,97797.44
2019-03-02T18:55:03.760Z,97798.28
2019-03-02T18:57:35.825Z,97800.58
2019-03-02T19:00:16.165Z,97792.34
2019-03-02T19:02:48.253Z,97795.62
2019-03-02T19:05:28.787Z,97797.63
2019-03-02T19:08:02.856Z,97796.77
2019-03-02T19:10:35.062Z,97796.38
2019-03-02T19:13:09.323Z,97811.14
2019-03-02T19:15:41.440Z,97817.22
2019-03-02T19:18:13.539Z,97818.31
2019-03-02T19:20:45.966Z,97815.72
2019-03-02T19:23:18.210Z,97816.16
2019-03-02T19:25:50.337Z,97821.05
2019-03-02T19:28:22.417Z,97816.90
2019-03-02T19:30:54.444Z,97821.11
2019-03-02T19:33:27.483Z,97820.04
2019-03-02T19:35:59.497Z,97814.40
2019-03-02T19:38:31.742Z,97815.34
2019-03-02T19:41:06.094Z,97816.47
2019-03-02T19:43:38.374Z,97811.87
2019-03-02T19:46:11.677Z,97817.86
2019-03-02T19:48:48.283Z,97819.92
2019-03-02T19:51:28.182Z,97817.98
2019-03-02T19:54:08.331Z,97815.30
2019-03-02T19:56:44.906Z,97819.13
2019-03-02T19:59:20.126Z,97822.05
2019-03-02T20:01:52.491Z,97826.02
2019-03-02T20:04:24.544Z,97827.56
2019-03-02T20:06:56.683Z,97821.27
2019-03-02T20:09:28.738Z,97824.66
2019-03-02T20:12:00.819Z,97819.61
2019-03-02T20:14:32.802Z,97818.55
2019-03-02T20:17:04.939Z,97821.74
2019-03-02T20:19:36.998Z,97822.59
2019-03-02T20:22:09.204Z,97831.23
2019-03-02T20:24:41.267Z,97835.69
2019-03-02T20:27:13.400Z,97837.41
2019-03-02T20:29:45.562Z,97836.77
2019-03-02T20:32:17.671Z,97838.22
2019-03-02T20:34:49.736Z,97838.63
2019-03-02T20:37:21.855Z,97833.55
2019-03-02T20:39:53.934Z,97829.56
2019-03-02T20:42:26.376Z,97822.67
2019-03-02T20:44:58.432Z,97822.75
2019-03-02T20:47:32.510Z,97816.67
2019-03-02T20:50:04.968Z,97817.23
2019-03-02T20:52:37.052Z,97814.73
2019-03-02T20:55:10.202Z,97815.22
2019-03-02T20:57:42.293Z,97813.36
2019-03-02T21:00:21.455Z,97813.84
2019-03-02T21:02:53.989Z,97807.33
2019-03-02T21:05:26.437Z,97805.37
2019-03-02T21:07:58.679Z,97803.34
2019-03-02T21:10:30.783Z,97808.63
2019-03-02T21:13:02.874Z,97804.58
2019-03-02T21:15:36.225Z,97805.05
2019-03-02T21:18:08.365Z,97803.52
2019-03-02T21:20:40.836Z,97809.44
2019-03-02T21:23:12.947Z,97807.81
2019-03-02T21:25:45.217Z,97806.05
2019-03-02T21:28:17.383Z,97800.41
2019-03-02T21:30:49.526Z,97795.92
2019-03-02T21:33:21.682Z,97798.27
2019-03-02T21:35:53.716Z,97804.47
2019-03-02T21:38:25.783Z,97805.79
2019-03-02T21:40:57.766Z,97802.00
2019-03-02T21:43:29.781Z,97800.47
2019-03-02T21:46:01.766Z,97801.95
2019-03-02T21:48:34.252Z,97801.68
2019-03-02T21:51:07.023Z,97800.62
2019-03-02T21:53:39.138Z,97797.58
2019-03-02T21:56:11.288Z,97793.41
2019-03-02T21:58:43.321Z,97794.80
2019-03-02T22:01:15.289Z,97793.20
2019-03-02T22:03:47.310Z,97797.31
2019-03-02T22:06:19.306Z,97794.69
2019-03-02T22:08:51.335Z,97791.87
2019-03-02T22:11:23.632Z,97787.02
2019-03-02T22:13:55.601Z,97789.14
2019-03-02T22:16:27.518Z,97782.31
2019-03-02T22:19:00.181Z,97787.06
2019-03-02T22:21:32.073Z,97780.98
2019-03-02T22:24:04.020Z,97777.38
2019-03-02T22:26:36.033Z,97782.77
2019-03-02T22:29:08.062Z,97778.36
2019-03-02T22:31:39.967Z,97784.23
2019-03-02T22:34:11.907Z,97784.77
2019-03-02T22:36:43.811Z,97791.80
2019-03-02T22:39:15.746Z,97786.95
2019-03-02T22:41:47.654Z,97788.92
2019-03-02T22:44:19.594Z,97789.77
2019-03-02T22:46:51.496Z,97789.34
2019-03-02T22:49:23.430Z,97791.66
2019-03-02T22:51:55.329Z,97799.28
2019-03-02T22:54:27.257Z,97795.44
2019-03-02T22:56:59.160Z,97799.11
2019-03-02T22:59:31.093Z,97800.67
2019-03-02T23:02:20.873Z,97799.98
2019-03-02T23:04:52.809Z,97801.89
2019-03-02T23:07:24.747Z,97802.59
2019-03-02T23:09:56.644Z,97797.87
2019-03-02T23:12:28.590Z,97795.81
2019-03-02T23:15:00.494Z,97788.44
2019-03-02T23:17:32.433Z,97788.48
2019-03-02T23:20:04.529Z,97793.40
2019-03-02T23:22:36.480Z,97788.11
2019-03-02T23:25:08.820Z,97786.88
2019-03-02T23:27:40.795Z,97783.87
2019-03-02T23:30:14.090Z,97780.41
2019-03-02T23:32:46.134Z,97776.19
2019-03-02T23:35:18.287Z,97772.22
2019-03-02T23:37:50.219Z,97773.78
2019-03-02T23:40:24.021Z,97776.29
2019-03-02T23:42:56.166Z,97768.64
2019-03-02T23:45:28.100Z,97763.52
2019-03-02T23:48:00.093Z,97759.14
2019-03-02T23:50:32.024Z,97766.93
2019-03-02T23:53:03.953Z,97757.91
2019-03-02T23:55:35.888Z,97760.31
2019-03-02T23:58:07.828Z,97758.81
